createdAt,value
2019-02-22T00:01:09.511Z,13.49
2019-02-22T00:03:35.816Z,13.47
2019-02-22T00:06:02.119Z,13.44
2019-02-22T00:08:28.419Z,13.41
2019-02-22T00:10:54.743Z,13.40
2019-02-22T00:13:21.061Z,13.40
2019-02-22T00:15:47.366Z,13.36
2019-02-22T00:18:13.689Z,13.35
2019-02-22T00:20:41.285Z,13.34
2019-02-22T00:23:06.290Z,13.29
2019-02-22T00:25:32.600Z,13.29
2019-02-22T00:27:58.903Z,13.26
2019-02-22T00:30:25.219Z,13.24
2019-02-22T00:32:51.516Z,13.20
2019-02-22T00:35:17.852Z,13.19
2019-02-22T00:37:44.175Z,13.16
2019-02-22T00:40:10.478Z,13.15
2019-02-22T00:42:36.783Z,13.13
2019-02-22T00:45:03.107Z,13.11
2019-02-22T00:47:29.418Z,13.06
2019-02-22T00:49:55.718Z,13.04
2019-02-22T00:52:22.026Z,13.02
2019-02-22T00:54:48.330Z,13.00
2019-02-22T00:57:14.634Z,12.97
2019-02-22T00:59:40.948Z,12.95
2019-02-22T01:02:07.247Z,12.94
2019-02-22T01:04:33.554Z,12.93
2019-02-22T01:06:59.864Z,12.91
2019-02-22T01:09:26.176Z,12.90
2019-02-22T01:11:52.480Z,12.86
2019-02-22T01:14:18.785Z,12.85
2019-02-22T01:16:45.095Z,12.82
2019-02-22T01:19:11.394Z,12.82
2019-02-22T01:21:37.703Z,12.80
2019-02-22T01:24:04.009Z,12.80
2019-02-22T01:26:30.311Z,12.77
2019-02-22T01:28:56.616Z,12.74
2019-02-22T01:31:22.923Z,12.72
2019-02-22T01:33:49.225Z,12.71
2019-02-22T01:36:15.535Z,12.70
2019-02-22T01:38:41.834Z,12.68
2019-02-22T01:41:08.144Z,12.68
2019-02-22T01:43:34.442Z,12.64
2019-02-22T01:46:00.752Z,12.63
2019-02-22T01:48:27.054Z,12.63
2019-02-22T01:50:53.364Z,12.64
2019-02-22T01:53:19.663Z,12.63
2019-02-22T01:55:45.964Z,12.62
2019-02-22T01:58:12.278Z,12.59
2019-02-22T02:00:38.580Z,12.57
2019-02-22T02:03:04.883Z,12.56
2019-02-22T02:05:31.188Z,12.54
2019-02-22T02:07:57.520Z,12.50
2019-02-22T02:10:23.811Z,12.49
2019-02-22T02:12:50.121Z,12.48
2019-02-22T02:15:16.430Z,12.45
2019-02-22T02:17:42.739Z,12.42
2019-02-22T02:20:09.119Z,12.43
2019-02-22T02:22:35.355Z,12.42
2019-02-22T02:25:01.660Z,12.40
2019-02-22T02:27:27.962Z,12.39
2019-02-22T02:29:54.268Z,12.36
2019-02-22T02:32:20.580Z,12.38
2019-02-22T02:34:46.880Z,12.36
2019-02-22T02:37:13.196Z,12.34
2019-02-22T02:39:39.500Z,12.34
2019-02-22T02:42:05.806Z,12.31
2019-02-22T02:44:32.113Z,12.30
2019-02-22T02:46:58.418Z,12.29
2019-02-22T02:49:24.723Z,12.27
2019-02-22T02:51:51.046Z,12.27
2019-02-22T02:54:17.335Z,12.26
2019-02-22T02:56:46.192Z,12.24
2019-02-22T02:59:09.951Z,12.25
2019-02-22T03:01:36.258Z,12.23
2019-02-22T03:04:02.571Z,12.23
2019-02-22T03:06:28.871Z,12.23
2019-02-22T03:08:55.184Z,12.21
2019-02-22T03:11:21.519Z,12.19
2019-02-22T03:13:47.814Z,12.17
2019-02-22T03:16:14.149Z,12.16
2019-02-22T03:18:40.447Z,12.14
2019-02-22T03:21:06.753Z,12.12
2019-02-22T03:23:33.061Z,12.11
2019-02-22T03:25:59.373Z,12.10
2019-02-22T03:28:25.691Z,12.13
2019-02-22T03:30:52.023Z,12.12
2019-02-22T03:33:18.313Z,12.10
2019-02-22T03:35:44.600Z,12.12
2019-02-22T03:38:10.906Z,12.08
2019-02-22T03:40:37.230Z,12.04
2019-02-22T03:43:03.535Z,12.04
2019-02-22T03:45:29.934Z,12.01
2019-02-22T03:47:56.155Z,12.02
2019-02-22T03:50:22.454Z,12.00
2019-02-22T03:52:48.766Z,11.99
2019-02-22T03:55:15.069Z,11.98
2019-02-22T03:57:41.380Z,11.95
2019-02-22T04:00:07.719Z,11.95
2019-02-22T04:02:34.011Z,11.93
2019-02-22T04:05:00.310Z,11.90
2019-02-22T04:07:26.651Z,11.79
2019-02-22T04:09:52.960Z,11.88
2019-02-22T04:12:19.270Z,11.85
2019-02-22T04:14:45.576Z,11.83
2019-02-22T04:17:11.884Z,11.85
2019-02-22T04:19:38.243Z,11.84
2019-02-22T04:22:04.562Z,11.83
2019-02-22T04:24:30.875Z,11.82
2019-02-22T04:26:57.183Z,11.82
2019-02-22T04:29:23.489Z,11.81
2019-02-22T04:31:49.801Z,11.80
2019-02-22T04:34:16.106Z,11.78
2019-02-22T04:36:42.450Z,11.80
2019-02-22T04:39:08.755Z,11.82
2019-02-22T04:41:35.062Z,11.81
2019-02-22T04:44:01.370Z,11.81
2019-02-22T04:46:27.675Z,11.82
2019-02-22T04:48:53.988Z,11.84
2019-02-22T04:51:20.297Z,11.83
2019-02-22T04:53:46.608Z,11.83
2019-02-22T04:56:12.919Z,11.80
2019-02-22T04:58:39.223Z,11.80
2019-02-22T05:01:05.534Z,11.80
2019-02-22T05:03:31.853Z,11.79
2019-02-22T05:05:58.162Z,11.80
2019-02-22T05:08:24.469Z,11.81
2019-02-22T05:10:50.782Z,11.80
2019-02-22T05:13:17.090Z,11.79
2019-02-22T05:15:43.402Z,11.79
2019-02-22T05:18:09.709Z,11.80
2019-02-22T05:20:36.012Z,11.80
2019-02-22T05:23:04.377Z,11.80
2019-02-22T05:25:28.641Z,11.81
2019-02-22T05:27:54.949Z,11.80
2019-02-22T05:30:21.251Z,11.81
2019-02-22T05:32:47.560Z,11.82
2019-02-22T05:35:13.872Z,11.82
2019-02-22T05:37:40.180Z,11.81
2019-02-22T05:40:06.492Z,11.83
2019-02-22T05:42:32.797Z,11.85
2019-02-22T05:44:59.105Z,11.85
2019-02-22T05:47:25.421Z,11.87
2019-02-22T05:49:51.739Z,11.91
2019-02-22T05:52:18.047Z,11.93
2019-02-22T05:54:44.357Z,11.93
2019-02-22T05:57:10.675Z,11.92
2019-02-22T05:59:36.985Z,11.90
2019-02-22T06:02:03.296Z,11.91
2019-02-22T06:04:29.618Z,11.91
2019-02-22T06:06:55.942Z,11.90
2019-02-22T06:09:22.254Z,11.90
2019-02-22T06:11:48.577Z,11.91
2019-02-22T06:14:14.873Z,11.92
2019-02-22T06:16:41.186Z,11.92
2019-02-22T06:19:07.496Z,11.84
2019-02-22T06:21:33.819Z,11.91
2019-02-22T06:24:02.735Z,11.90
2019-02-22T06:26:26.428Z,11.91
2019-02-22T06:28:52.739Z,11.91
2019-02-22T06:31:19.043Z,11.89
2019-02-22T06:33:45.361Z,11.90
2019-02-22T06:36:11.664Z,11.90
2019-02-22T06:38:37.970Z,11.91
2019-02-22T06:41:04.282Z,11.91
2019-02-22T06:43:30.581Z,11.91
2019-02-22T06:45:56.889Z,11.92
2019-02-22T06:48:23.198Z,11.91
2019-02-22T06:50:49.506Z,11.92
2019-02-22T06:53:15.816Z,11.92
2019-02-22T06:55:42.132Z,11.93
2019-02-22T06:58:08.469Z,11.92
2019-02-22T07:00:34.773Z,11.92
2019-02-22T07:03:01.152Z,11.93
2019-02-22T07:05:27.395Z,11.93
2019-02-22T07:07:53.704Z,11.94
2019-02-22T07:10:20.013Z,11.94
2019-02-22T07:12:56.552Z,11.95
2019-02-22T07:15:12.642Z,11.95
2019-02-22T07:17:38.968Z,11.96
2019-02-22T07:20:05.290Z,11.96
2019-02-22T07:22:31.599Z,11.96
2019-02-22T07:24:57.905Z,11.96
2019-02-22T07:27:24.213Z,11.96
2019-02-22T07:29:50.529Z,11.94
2019-02-22T07:32:16.837Z,11.96
2019-02-22T07:34:43.149Z,11.95
2019-02-22T07:37:09.461Z,11.96
2019-02-22T07:39:35.769Z,11.96
2019-02-22T07:42:02.092Z,11.96
2019-02-22T07:44:28.393Z,11.98
2019-02-22T07:46:54.705Z,11.98
2019-02-22T07:49:21.017Z,11.98
2019-02-22T07:51:47.326Z,11.96
2019-02-22T07:54:13.640Z,11.98
2019-02-22T07:56:39.946Z,12.00
2019-02-22T07:59:06.258Z,12.00
2019-02-22T08:01:32.566Z,12.02
2019-02-22T08:03:58.891Z,12.01
2019-02-22T08:06:25.206Z,12.01
2019-02-22T08:08:51.518Z,11.99
2019-02-22T08:11:17.969Z,12.02
2019-02-22T08:13:44.280Z,12.03
2019-02-22T08:16:10.579Z,12.02
2019-02-22T08:18:37.103Z,12.02
2019-02-22T08:21:03.468Z,12.03
2019-02-22T08:23:29.777Z,12.04
2019-02-22T08:25:56.112Z,12.04
2019-02-22T08:28:22.425Z,12.05
2019-02-22T08:30:48.733Z,12.06
2019-02-22T08:33:15.070Z,12.06
2019-02-22T08:35:41.377Z,12.08
2019-02-22T08:38:07.684Z,12.12
2019-02-22T08:40:33.998Z,12.11
2019-02-22T08:43:00.308Z,12.13
2019-02-22T08:45:26.620Z,12.14
2019-02-22T08:47:53.005Z,12.14
2019-02-22T08:50:19.314Z,12.14
2019-02-22T08:52:45.615Z,12.15
2019-02-22T08:55:11.929Z,12.15
2019-02-22T08:57:38.231Z,12.15
2019-02-22T09:00:04.540Z,12.17
2019-02-22T09:02:30.847Z,12.18
2019-02-22T09:04:57.153Z,12.20
2019-02-22T09:07:23.471Z,12.22
2019-02-22T09:09:49.780Z,12.21
2019-02-22T09:12:16.088Z,12.23
2019-02-22T09:14:42.398Z,12.25
2019-02-22T09:17:08.712Z,12.25
2019-02-22T09:19:35.017Z,12.28
2019-02-22T09:22:01.329Z,12.31
2019-02-22T09:24:27.640Z,12.32
2019-02-22T09:26:53.944Z,12.35
2019-02-22T09:29:20.255Z,12.41
2019-02-22T09:31:46.563Z,12.44
2019-02-22T09:34:12.868Z,12.47
2019-02-22T09:36:39.177Z,12.50
2019-02-22T09:39:05.490Z,12.53
2019-02-22T09:41:31.797Z,12.56
2019-02-22T09:43:58.108Z,12.58
2019-02-22T09:46:24.422Z,12.60
2019-02-22T09:48:50.738Z,12.62
2019-02-22T09:51:17.102Z,12.63
2019-02-22T09:53:43.415Z,12.65
2019-02-22T09:56:09.725Z,12.66
2019-02-22T09:58:36.028Z,12.71
2019-02-22T10:01:02.338Z,12.72
2019-02-22T10:03:28.647Z,12.74
2019-02-22T10:05:54.970Z,12.75
2019-02-22T10:08:21.293Z,12.77
2019-02-22T10:10:47.655Z,12.77
2019-02-22T10:13:13.966Z,12.77
2019-02-22T10:15:40.277Z,12.77
2019-02-22T10:18:06.582Z,12.77
2019-02-22T10:20:32.897Z,12.77
2019-02-22T10:22:59.206Z,12.76
2019-02-22T10:25:25.513Z,12.78
2019-02-22T10:27:51.825Z,12.78
2019-02-22T10:30:18.148Z,12.78
2019-02-22T10:32:44.457Z,12.78
2019-02-22T10:35:10.773Z,12.79
2019-02-22T10:37:37.081Z,12.79
2019-02-22T10:40:03.389Z,12.78
2019-02-22T10:42:29.703Z,12.79
2019-02-22T10:44:56.010Z,12.78
2019-02-22T10:47:22.320Z,12.78
2019-02-22T10:49:48.671Z,12.78
2019-02-22T10:52:15.005Z,12.77
2019-02-22T10:54:41.400Z,12.80
2019-02-22T10:57:07.717Z,12.80
2019-02-22T10:59:34.017Z,12.81
2019-02-22T11:02:00.325Z,12.81
2019-02-22T11:04:26.631Z,12.80
2019-02-22T11:06:52.940Z,12.83
2019-02-22T11:09:19.243Z,12.82
2019-02-22T11:11:45.559Z,12.83
2019-02-22T11:14:11.869Z,12.85
2019-02-22T11:16:38.176Z,12.86
2019-02-22T11:19:04.482Z,12.86
2019-02-22T11:21:30.790Z,12.89
2019-02-22T11:23:57.096Z,12.91
2019-02-22T11:26:23.407Z,12.92
2019-02-22T11:28:49.723Z,12.93
2019-02-22T11:31:17.323Z,12.95
2019-02-22T11:33:42.409Z,12.96
2019-02-22T11:36:08.644Z,12.98
2019-02-22T11:38:34.951Z,12.91
2019-02-22T11:41:01.264Z,12.99
2019-02-22T11:43:27.662Z,12.99
2019-02-22T11:45:53.887Z,13.00
2019-02-22T11:48:20.191Z,13.00
2019-02-22T11:50:46.495Z,12.98
2019-02-22T11:53:12.805Z,13.02
2019-02-22T11:55:39.107Z,13.02
2019-02-22T11:58:05.420Z,13.03
2019-02-22T12:00:31.719Z,13.04
2019-02-22T12:02:58.036Z,13.04
2019-02-22T12:05:24.346Z,13.04
2019-02-22T12:07:50.652Z,13.04
2019-02-22T12:10:16.969Z,13.02
2019-02-22T12:12:43.290Z,13.05
2019-02-22T12:15:09.595Z,13.06
2019-02-22T12:17:35.912Z,13.07
2019-02-22T12:20:02.234Z,13.08
2019-02-22T12:22:28.546Z,13.10
2019-02-22T12:24:54.851Z,13.09
2019-02-22T12:27:21.159Z,13.11
2019-02-22T12:29:47.469Z,13.12
2019-02-22T12:32:13.793Z,13.12
2019-02-22T12:34:40.100Z,13.11
2019-02-22T12:37:06.407Z,13.13
2019-02-22T12:39:32.717Z,13.14
2019-02-22T12:41:59.030Z,13.12
2019-02-22T12:44:25.338Z,13.15
2019-02-22T12:46:51.664Z,13.15
2019-02-22T12:49:17.975Z,13.15
2019-02-22T12:51:44.281Z,13.15
2019-02-22T12:54:10.590Z,13.15
2019-02-22T12:59:03.207Z,13.16
2019-02-22T13:01:29.549Z,13.17
2019-02-22T13:03:55.858Z,13.18
2019-02-22T13:06:22.163Z,13.19
2019-02-22T13:08:48.473Z,13.20
2019-02-22T13:11:14.786Z,13.19
2019-02-22T13:13:41.097Z,13.20
2019-02-22T13:16:07.409Z,13.20
2019-02-22T13:18:33.721Z,13.21
2019-02-22T13:21:00.039Z,13.20
2019-02-22T13:23:26.483Z,13.21
2019-02-22T13:25:52.775Z,13.21
2019-02-22T13:28:19.088Z,13.21
2019-02-22T13:30:45.400Z,13.22
2019-02-22T13:33:11.729Z,13.21
2019-02-22T13:35:38.037Z,13.22
2019-02-22T13:38:04.340Z,13.22
2019-02-22T13:40:30.655Z,13.19
2019-02-22T13:42:56.966Z,13.20
2019-02-22T13:45:26.999Z,13.17
2019-02-22T13:47:49.589Z,13.20
2019-02-22T13:50:15.906Z,13.19
2019-02-22T13:52:42.211Z,13.18
2019-02-22T13:55:08.529Z,13.17
2019-02-22T13:57:34.832Z,13.16
2019-02-22T14:00:01.143Z,13.15
2019-02-22T14:02:27.449Z,13.12
2019-02-22T14:04:53.757Z,13.13
2019-02-22T14:07:20.072Z,13.12
2019-02-22T14:09:46.384Z,13.10
2019-02-22T14:12:12.734Z,13.10
2019-02-22T14:14:39.036Z,13.09
2019-02-22T14:17:05.351Z,13.08
2019-02-22T14:19:31.657Z,13.08
2019-02-22T14:21:57.963Z,13.07
2019-02-22T14:24:24.271Z,13.05
2019-02-22T14:26:50.581Z,13.06
2019-02-22T14:29:16.897Z,13.07
2019-02-22T14:31:43.208Z,13.04
2019-02-22T14:34:09.519Z,13.04
2019-02-22T14:36:35.819Z,13.02
2019-02-22T14:39:02.152Z,12.99
2019-02-22T14:41:28.448Z,12.99
2019-02-22T14:43:54.759Z,12.98
2019-02-22T14:46:25.897Z,12.96
2019-02-22T14:48:47.379Z,12.95
2019-02-22T14:51:15.216Z,12.95
2019-02-22T14:53:39.994Z,12.93
2019-02-22T14:56:06.318Z,12.93
2019-02-22T14:58:32.629Z,12.91
2019-02-22T15:00:58.945Z,12.90
2019-02-22T15:03:25.247Z,12.89
2019-02-22T15:05:51.559Z,12.88
2019-02-22T15:08:17.862Z,12.86
2019-02-22T15:10:44.192Z,12.84
2019-02-22T15:13:12.585Z,12.82
2019-02-22T15:15:36.797Z,12.81
2019-02-22T15:18:03.114Z,13.03
2019-02-22T15:20:29.419Z,13.66
2019-02-22T15:22:55.764Z,13.52
2019-02-22T15:25:22.039Z,13.80
2019-02-22T15:27:48.346Z,14.24
2019-02-22T15:30:14.723Z,14.45
2019-02-22T15:32:41.000Z,14.04
2019-02-22T15:35:07.407Z,13.75
2019-02-22T15:37:33.726Z,13.53
2019-02-22T15:40:00.057Z,13.50
2019-02-22T15:42:26.359Z,13.38
2019-02-22T15:44:52.664Z,13.35
2019-02-22T15:47:18.967Z,13.35
2019-02-22T15:49:45.275Z,13.23
2019-02-22T15:52:11.580Z,13.20
2019-02-22T15:54:37.916Z,13.17
2019-02-22T15:57:04.226Z,13.21
2019-02-22T15:59:30.526Z,13.16
2019-02-22T16:01:56.837Z,13.17
2019-02-22T16:04:23.144Z,12.98
2019-02-22T16:06:49.449Z,12.92
2019-02-22T16:09:15.756Z,13.10
2019-02-22T16:11:42.070Z,13.17
2019-02-22T16:14:08.422Z,13.16
2019-02-22T16:16:34.746Z,13.13
2019-02-22T16:19:01.039Z,13.10
2019-02-22T16:21:27.348Z,13.06
2019-02-22T16:23:53.666Z,13.01
2019-02-22T16:26:20.013Z,13.00
2019-02-22T16:28:46.314Z,12.98
2019-02-22T16:31:12.633Z,12.95
2019-02-22T16:33:38.979Z,12.92
2019-02-22T16:36:05.302Z,12.89
2019-02-22T16:38:31.636Z,12.86
2019-02-22T16:40:57.964Z,12.83
2019-02-22T16:43:24.290Z,12.80
2019-02-22T16:45:50.616Z,12.77
2019-02-22T16:48:16.959Z,12.75
2019-02-22T16:50:43.285Z,12.74
2019-02-22T16:53:09.611Z,12.72
2019-02-22T16:55:35.934Z,12.70
2019-02-22T16:58:02.280Z,12.69
2019-02-22T17:00:28.603Z,12.67
2019-02-22T17:02:54.928Z,12.64
2019-02-22T17:05:21.289Z,12.61
2019-02-22T17:07:47.617Z,12.60
2019-02-22T17:10:13.945Z,12.58
2019-02-22T17:12:40.271Z,12.56
2019-02-22T17:15:06.599Z,12.54
2019-02-22T17:17:32.979Z,12.53
2019-02-22T17:19:59.269Z,12.49
2019-02-22T17:22:25.591Z,12.50
2019-02-22T17:24:51.930Z,12.46
2019-02-22T17:27:18.307Z,12.46
2019-02-22T17:29:44.576Z,12.45
2019-02-22T17:32:10.888Z,12.43
2019-02-22T17:34:37.196Z,12.40
2019-02-22T17:37:03.501Z,12.41
2019-02-22T17:39:29.814Z,12.38
2019-02-22T17:41:56.117Z,12.38
2019-02-22T17:44:22.461Z,12.37
2019-02-22T17:46:57.283Z,12.35
2019-02-22T17:49:15.107Z,12.34
2019-02-22T17:51:41.447Z,12.34
2019-02-22T17:54:07.753Z,12.33
2019-02-22T17:56:34.088Z,12.32
2019-02-22T17:59:00.402Z,12.32
2019-02-22T18:01:26.761Z,12.31
2019-02-22T18:03:53.072Z,12.30
2019-02-22T18:06:19.385Z,12.28
2019-02-22T18:08:45.696Z,12.27
2019-02-22T18:11:12.009Z,12.27
2019-02-22T18:13:38.378Z,12.26
2019-02-22T18:16:04.836Z,12.25
2019-02-22T18:18:31.238Z,12.23
2019-02-22T18:20:57.472Z,12.21
2019-02-22T18:23:23.785Z,12.20
2019-02-22T18:25:50.394Z,12.27
2019-02-22T18:28:16.703Z,12.34
2019-02-22T18:30:43.015Z,12.32
2019-02-22T18:33:09.376Z,12.30
2019-02-22T18:35:35.693Z,12.28
2019-02-22T18:38:02.046Z,12.25
2019-02-22T18:40:28.365Z,12.24
2019-02-22T18:42:54.756Z,12.21
2019-02-22T18:45:21.069Z,12.19
2019-02-22T18:47:47.447Z,12.14
2019-02-22T18:50:13.748Z,12.11
2019-02-22T18:52:40.063Z,12.06
2019-02-22T18:55:06.403Z,12.03
2019-02-22T18:57:32.713Z,12.01
2019-02-22T18:59:59.294Z,12.00
2019-02-22T19:02:25.595Z,11.98
2019-02-22T19:04:51.910Z,11.97
2019-02-22T19:07:18.343Z,11.95
2019-02-22T19:09:44.656Z,11.92
2019-02-22T19:12:10.969Z,11.90
2019-02-22T19:14:37.283Z,11.88
2019-02-22T19:17:03.588Z,11.89
2019-02-22T19:19:29.895Z,11.87
2019-02-22T19:21:56.209Z,11.86
2019-02-22T19:24:22.518Z,11.85
2019-02-22T19:26:48.823Z,11.84
2019-02-22T19:29:15.131Z,11.83
2019-02-22T19:31:41.436Z,11.79
2019-02-22T19:34:07.744Z,11.80
2019-02-22T19:36:34.051Z,11.79
2019-02-22T19:39:02.346Z,11.78
2019-02-22T19:41:28.655Z,11.78
2019-02-22T19:43:54.972Z,11.77
2019-02-22T19:46:21.284Z,11.74
2019-02-22T19:48:47.592Z,11.74
2019-02-22T19:51:13.934Z,11.73
2019-02-22T19:53:40.268Z,11.74
2019-02-22T19:56:06.574Z,11.73
2019-02-22T19:58:32.892Z,11.80
2019-02-22T20:00:59.216Z,11.96
2019-02-22T20:03:25.599Z,11.94
2019-02-22T20:05:51.905Z,11.92
2019-02-22T20:08:18.208Z,11.88
2019-02-22T20:10:44.529Z,11.85
2019-02-22T20:13:10.838Z,11.79
2019-02-22T20:15:37.168Z,11.80
2019-02-22T20:18:03.480Z,11.77
2019-02-22T20:20:29.791Z,11.75
2019-02-22T20:22:58.813Z,11.75
2019-02-22T20:25:25.120Z,11.73
2019-02-22T20:27:51.428Z,11.70
2019-02-22T20:30:17.742Z,11.70
2019-02-22T20:32:44.067Z,11.68
2019-02-22T20:35:10.374Z,11.67
2019-02-22T20:37:36.679Z,11.65
2019-02-22T20:40:02.990Z,11.65
2019-02-22T20:42:29.300Z,11.65
2019-02-22T20:44:55.619Z,11.62
2019-02-22T20:47:22.043Z,11.64
2019-02-22T20:49:48.394Z,11.64
2019-02-22T20:52:14.720Z,11.64
2019-02-22T20:54:41.050Z,11.62
2019-02-22T20:57:07.348Z,11.62
2019-02-22T20:59:33.657Z,11.61
2019-02-22T21:01:59.969Z,11.60
2019-02-22T21:04:26.282Z,11.59
2019-02-22T21:06:52.593Z,11.58
2019-02-22T21:09:18.931Z,11.57
2019-02-22T21:11:45.255Z,11.57
2019-02-22T21:14:11.561Z,11.54
2019-02-22T21:16:37.871Z,11.55
2019-02-22T21:19:04.176Z,11.55
2019-02-22T21:21:30.483Z,11.53
2019-02-22T21:23:56.806Z,11.51
2019-02-22T21:26:23.168Z,11.51
2019-02-22T21:28:49.433Z,11.50
2019-02-22T21:31:15.756Z,11.49
2019-02-22T21:33:42.065Z,11.48
2019-02-22T21:36:08.378Z,11.48
2019-02-22T21:38:34.685Z,11.47
2019-02-22T21:41:00.996Z,11.47
2019-02-22T21:43:27.332Z,11.46
2019-02-22T21:45:53.645Z,11.44
2019-02-22T21:48:27.179Z,11.43
2019-02-22T21:50:46.271Z,11.43
2019-02-22T21:53:12.582Z,11.43
2019-02-22T21:55:38.897Z,11.41
2019-02-22T21:58:05.198Z,11.40
2019-02-22T22:00:31.521Z,11.41
2019-02-22T22:02:57.830Z,11.41
2019-02-22T22:05:24.137Z,11.40
2019-02-22T22:07:50.448Z,11.40
2019-02-22T22:10:16.766Z,11.38
2019-02-22T22:12:43.082Z,11.37
2019-02-22T22:15:10.643Z,11.36
2019-02-22T22:17:35.717Z,11.35
2019-02-22T22:20:02.021Z,11.34
2019-02-22T22:22:28.332Z,11.34
2019-02-22T22:24:54.645Z,11.33
2019-02-22T22:27:20.954Z,11.32
2019-02-22T22:29:47.260Z,11.31
2019-02-22T22:32:13.572Z,11.30
2019-02-22T22:34:39.891Z,11.28
2019-02-22T22:37:06.209Z,11.26
2019-02-22T22:39:32.516Z,11.24
2019-02-22T22:41:58.827Z,11.21
2019-02-22T22:44:25.137Z,11.17
2019-02-22T22:46:51.449Z,11.15
2019-02-22T22:49:17.760Z,11.14
2019-02-22T22:51:44.075Z,11.11
2019-02-22T22:54:10.381Z,11.11
2019-02-22T22:56:36.695Z,11.06
2019-02-22T22:59:03.000Z,11.05
2019-02-22T23:01:29.311Z,11.01
2019-02-22T23:03:55.615Z,10.99
2019-02-22T23:06:21.949Z,10.97
2019-02-22T23:08:48.267Z,10.93
2019-02-22T23:11:14.582Z,10.90
2019-02-22T23:13:40.896Z,10.86
2019-02-22T23:16:07.205Z,10.85
2019-02-22T23:18:33.519Z,10.83
2019-02-22T23:20:59.830Z,10.80
2019-02-22T23:23:26.136Z,10.76
2019-02-22T23:25:52.450Z,10.74
2019-02-22T23:28:18.763Z,10.68
2019-02-22T23:30:45.092Z,10.67
2019-02-22T23:33:11.404Z,10.63
2019-02-22T23:35:37.709Z,10.61
2019-02-22T23:38:04.021Z,10.57
2019-02-22T23:40:30.331Z,10.51
2019-02-22T23:42:56.636Z,10.48
2019-02-22T23:45:22.952Z,10.48
2019-02-22T23:47:49.256Z,10.48
2019-02-22T23:50:15.567Z,10.45
2019-02-22T23:52:41.878Z,10.41
2019-02-22T23:55:08.187Z,10.35
2019-02-22T23:57:34.498Z,10.33
